Tanggu, China
Current Conditions -  °F | °C
As of 2:30 AM on Wednesday 22 Oct 2014 (Local Time) from ZBTJ Reporting Station
Clear Clear  
Wind Chill: 50°   Ceiling: Unl
Heat Index: 50°   Visibility: 4mi
Dew Point: 36°   Wind: 2mph
Humidity: 58%   Direction: 160°SSE
Pressure: 30.24"   Gusts: NA
Location:  39°N, 117.67°E
Report Text: ZBTJ 211830Z 16001MPS 6000 NSC 10/02 Q1024 NOSIG
Loading
Personal Weather Stations






























Interactive Weather Map
Tropical Storm Tracking
New forecast layout! Learn more

10-Day Weather Forecast

Advertisements
Track Severe Weather on mobile